createdAt,value
2022-11-14T00:00:47.568Z,49.8
2022-11-14T00:06:31.054Z,49.8
2022-11-14T00:11:54.629Z,49.7
2022-11-14T00:17:00.537Z,49.7
2022-11-14T00:22:23.450Z,49.6
2022-11-14T00:28:01.681Z,49.6
2022-11-14T00:33:39.472Z,49.6
2022-11-14T00:39:02.643Z,49.6
2022-11-14T00:44:09.507Z,49.5
2022-11-14T00:49:47.122Z,49.4
2022-11-14T00:55:24.724Z,49.4
2022-11-14T01:01:03.342Z,49.4
2022-11-14T01:06:46.137Z,49.4
2022-11-14T01:12:24.433Z,49.4
2022-11-14T01:17:46.895Z,49.3
2022-11-14T01:23:13.923Z,49.3
2022-11-14T01:28:51.514Z,49.3
2022-11-14T01:34:28.823Z,49.2
2022-11-14T01:39:51.596Z,49.2
2022-11-14T01:45:35.151Z,49.1
2022-11-14T01:51:12.276Z,49.1
2022-11-14T01:56:49.942Z,49.1
2022-11-14T02:01:57.429Z,49.1
2022-11-14T02:07:40.632Z,49
2022-11-14T02:13:18.349Z,49
2022-11-14T02:19:29.398Z,48.9
2022-11-14T02:24:55.106Z,48.9
2022-11-14T02:30:18.815Z,48.9
2022-11-14T02:36:02.409Z,48.9
2022-11-14T02:41:40.479Z,48.8
2022-11-14T02:47:18.632Z,48.8
2022-11-14T02:52:56.639Z,48.8
2022-11-14T02:57:49.725Z,48.7
2022-11-14T03:03:24.149Z,48.7
2022-11-14T03:08:00.383Z,48.7
2022-11-14T03:13:06.982Z,48.6
2022-11-14T03:18:45.535Z,48.6
2022-11-14T03:23:52.729Z,48.6
2022-11-14T03:29:29.544Z,48.5
2022-11-14T03:35:08.309Z,48.5
2022-11-14T03:40:48.798Z,48.4
2022-11-14T03:46:24.760Z,48.4
2022-11-14T03:52:03.728Z,48.4
2022-11-14T03:57:10.466Z,48.4
2022-11-14T04:02:17.217Z,48.3
2022-11-14T04:07:56.202Z,48.3
2022-11-14T04:13:39.395Z,48.3
2022-11-14T04:19:20.528Z,48.2
2022-11-14T04:24:44.516Z,48.2
2022-11-14T04:30:06.985Z,48.1
2022-11-14T04:35:28.299Z,48.1
2022-11-14T04:41:08.309Z,48.1
2022-11-14T04:46:47.001Z,48.1
2022-11-14T04:52:07.775Z,48
2022-11-14T04:57:45.870Z,48
2022-11-14T05:03:14.193Z,47.9
2022-11-14T05:08:36.616Z,47.9
2022-11-14T05:14:18.471Z,47.9
2022-11-14T05:19:39.963Z,47.8
2022-11-14T05:25:16.852Z,47.8
2022-11-14T05:30:27.246Z,47.8
2022-11-14T05:35:37.939Z,47.8
2022-11-14T05:40:43.988Z,47.7
2022-11-14T05:46:05.749Z,47.7
2022-11-14T05:51:43.961Z,47.6
2022-11-14T05:57:25.941Z,47.6
2022-11-14T06:03:11.621Z,47.6
2022-11-14T06:08:34.727Z,47.5
2022-11-14T06:14:12.553Z,47.4
2022-11-14T06:19:51.135Z,47.4
2022-11-14T06:25:28.761Z,47.4
2022-11-14T06:31:09.908Z,47.4
2022-11-14T06:36:47.444Z,47.4
2022-11-14T06:42:25.589Z,47.3
2022-11-14T06:48:09.043Z,47.3
2022-11-14T06:53:20.912Z,47.3
2022-11-14T06:58:50.312Z,47.2
2022-11-14T07:04:12.748Z,47.2
2022-11-14T07:09:34.577Z,47.1
2022-11-14T07:14:56.507Z,47.1
2022-11-14T07:20:22.748Z,47.1
2022-11-14T07:25:44.727Z,47.1
2022-11-14T07:31:12.713Z,47
2022-11-14T07:36:34.240Z,47
2022-11-14T07:41:56.675Z,46.9
2022-11-14T07:47:19.169Z,46.9
2022-11-14T07:52:40.989Z,46.9
2022-11-14T07:58:06.692Z,46.8
2022-11-14T08:03:46.392Z,46.8
2022-11-14T08:09:07.796Z,46.8
2022-11-14T08:15:11.325Z,46.8
2022-11-14T08:20:34.138Z,46.7
2022-11-14T08:26:12.087Z,46.7
2022-11-14T08:31:59.688Z,46.7
2022-11-14T08:37:22.596Z,46.6
2022-11-14T08:43:01.722Z,46.6
2022-11-14T08:48:39.449Z,46.6
2022-11-14T08:54:19.002Z,46.5
2022-11-14T08:59:57.205Z,46.5
2022-11-14T09:05:40.685Z,46.4
2022-11-14T09:11:22.477Z,46.4
2022-11-14T09:17:04.682Z,46.4
2022-11-14T09:22:50.490Z,46.4
2022-11-14T09:28:37.378Z,46.3
2022-11-14T09:34:18.657Z,46.3
2022-11-14T09:40:01.883Z,46.3
2022-11-14T09:45:44.664Z,46.2
2022-11-14T09:51:28.014Z,46.1
2022-11-14T09:57:06.264Z,46.1
2022-11-14T10:02:34.632Z,46
2022-11-14T10:08:13.687Z,45.9
2022-11-14T10:13:52.068Z,45.9
2022-11-14T10:19:15.811Z,45.9
2022-11-14T10:24:53.501Z,45.9
2022-11-14T10:30:38.605Z,45.8
2022-11-14T10:36:24.403Z,45.8
2022-11-14T10:42:31.838Z,45.7
2022-11-14T10:47:57.479Z,45.7
2022-11-14T10:53:36.366Z,45.6
2022-11-14T10:59:54.322Z,45.6
2022-11-14T11:05:32.625Z,45.6
2022-11-14T11:12:41.269Z,45.5
2022-11-14T11:18:10.143Z,45.5
2022-11-14T11:23:38.311Z,45.4
2022-11-14T11:29:16.657Z,45.4
2022-11-14T11:34:55.299Z,45.4
2022-11-14T11:40:34.574Z,45.3
2022-11-14T11:47:39.365Z,45.3
2022-11-14T11:53:01.917Z,45.3
2022-11-14T11:58:45.435Z,45.3
2022-11-14T12:04:14.702Z,45.2
2022-11-14T12:10:28.712Z,45.1
2022-11-14T12:16:11.764Z,45.1
2022-11-14T12:21:55.758Z,45.1
2022-11-14T12:27:37.022Z,45.3
2022-11-14T12:33:21.332Z,45.4
2022-11-14T12:39:02.417Z,45.7
2022-11-14T12:44:43.955Z,45.9
2022-11-14T12:50:24.555Z,46.1
2022-11-14T12:56:03.094Z,46.3
2022-11-14T13:01:43.787Z,46.4
2022-11-14T13:06:56.799Z,46.6
2022-11-14T13:12:24.344Z,46.7
2022-11-14T13:18:07.607Z,46.8
2022-11-14T13:23:47.781Z,46.8
2022-11-14T13:29:48.601Z,46.7
2022-11-14T13:35:27.399Z,46.7
2022-11-14T13:41:10.600Z,46.7
2022-11-14T13:46:54.068Z,46.7
2022-11-14T13:53:00.143Z,46.6
2022-11-14T13:58:38.788Z,46.6
2022-11-14T14:04:20.317Z,46.6
2022-11-14T14:10:03.921Z,46.6
2022-11-14T14:15:42.392Z,46.6
2022-11-14T14:21:27.413Z,46.5
2022-11-14T14:27:05.990Z,46.5
2022-11-14T14:32:48.461Z,46.4
2022-11-14T14:38:32.116Z,46.4
2022-11-14T14:44:15.239Z,46.4
2022-11-14T14:49:54.275Z,46.4
2022-11-14T14:55:37.264Z,46.4
2022-11-14T15:01:15.075Z,46.3
2022-11-14T15:06:43.389Z,46.3
2022-11-14T15:12:22.475Z,46.3
2022-11-14T15:18:07.856Z,46.3
2022-11-14T15:23:45.769Z,46.3
2022-11-14T15:29:24.125Z,46.2
2022-11-14T15:34:46.596Z,46.1
2022-11-14T15:41:00.633Z,46.1
2022-11-14T15:46:38.823Z,46.1
2022-11-14T15:52:16.899Z,46.1
2022-11-14T15:58:13.522Z,46.1
2022-11-14T16:03:59.610Z,46
2022-11-14T16:09:38.204Z,46
2022-11-14T16:14:51.142Z,45.9
2022-11-14T16:20:13.430Z,45.9
2022-11-14T16:25:40.129Z,45.9
2022-11-14T16:31:02.721Z,45.9
2022-11-14T16:36:25.514Z,45.8
2022-11-14T16:42:03.265Z,45.8
2022-11-14T16:47:33.267Z,45.8
2022-11-14T16:53:09.968Z,45.8
2022-11-14T16:58:32.223Z,45.8
2022-11-14T17:04:12.465Z,45.7
2022-11-14T17:09:41.044Z,45.6
2022-11-14T17:15:04.562Z,45.6
2022-11-14T17:20:43.002Z,45.6
2022-11-14T17:26:11.063Z,45.6
2022-11-14T17:31:17.611Z,45.5
2022-11-14T17:36:27.945Z,45.5
2022-11-14T17:42:05.216Z,45.4
2022-11-14T17:47:42.694Z,45.4
2022-11-14T17:53:25.421Z,45.6
2022-11-14T17:58:53.976Z,46.2
2022-11-14T18:04:22.319Z,46.8
2022-11-14T18:10:04.100Z,47
2022-11-14T18:15:28.094Z,47.1
2022-11-14T18:21:37.795Z,47.3
2022-11-14T18:27:15.596Z,47.4
2022-11-14T18:33:16.467Z,48.1
2022-11-14T18:38:54.057Z,48.8
2022-11-14T18:44:06.194Z,49.3
2022-11-14T18:49:44.964Z,49.9
2022-11-14T18:55:13.558Z,50.4
2022-11-14T19:00:20.892Z,50.7
2022-11-14T19:05:59.906Z,50.7
2022-11-14T19:11:28.481Z,50.7
2022-11-14T19:17:06.817Z,50.6
2022-11-14T19:22:48.747Z,50.6
2022-11-14T19:28:29.129Z,50.6
2022-11-14T19:34:07.436Z,50.6
2022-11-14T19:40:05.053Z,50.6
2022-11-14T19:45:30.026Z,50.6
2022-11-14T19:50:52.634Z,50.5
2022-11-14T19:56:33.698Z,50.5
2022-11-14T20:02:15.883Z,50.5
2022-11-14T20:07:54.509Z,50.4
2022-11-14T20:13:35.502Z,50.6
2022-11-14T20:18:59.417Z,51.7
2022-11-14T20:24:22.650Z,53.2
2022-11-14T20:29:35.549Z,54.8
2022-11-14T20:35:14.089Z,56.3
2022-11-14T20:41:14.844Z,58
2022-11-14T20:46:52.902Z,59.7
2022-11-14T20:52:16.615Z,60.4
2022-11-14T20:57:44.893Z,60.4
2022-11-14T21:03:24.229Z,60.4
2022-11-14T21:09:02.463Z,60.3
2022-11-14T21:14:40.062Z,60.3
2022-11-14T21:20:16.765Z,60.3
2022-11-14T21:25:45.411Z,60.2
2022-11-14T21:31:23.463Z,60.2
2022-11-14T21:37:21.409Z,60.1
2022-11-14T21:43:03.800Z,60
2022-11-14T21:48:41.808Z,59.9
2022-11-14T21:54:05.131Z,59.9
2022-11-14T21:59:13.484Z,59.8
2022-11-14T22:04:55.316Z,59.8
2022-11-14T22:10:35.082Z,59.8
2022-11-14T22:16:13.534Z,59.7
2022-11-14T22:21:56.644Z,59.6
2022-11-14T22:27:18.633Z,59.6
2022-11-14T22:32:24.824Z,59.6
2022-11-14T22:38:03.187Z,59.5
2022-11-14T22:43:47.295Z,59.4
2022-11-14T22:49:24.458Z,59.4
2022-11-14T22:54:46.190Z,59.4
2022-11-14T22:59:53.160Z,59.3
2022-11-14T23:05:37.941Z,59.3
2022-11-14T23:11:15.990Z,59.3
2022-11-14T23:16:54.195Z,59.2
2022-11-14T23:22:18.730Z,59.1
2022-11-14T23:27:56.245Z,59.1
2022-11-14T23:33:33.890Z,59.1
2022-11-14T23:39:11.389Z,59
2022-11-14T23:44:48.095Z,58.9
2022-11-14T23:50:09.964Z,58.9
2022-11-14T23:55:47.335Z,58.9
